createdAt,value
2019-01-22T00:00:58.067Z,59.70
2019-01-22T00:01:58.061Z,60.90
2019-01-22T00:02:58.063Z,58.80
2019-01-22T00:03:58.049Z,58.90
2019-01-22T00:04:58.030Z,61.30
2019-01-22T00:05:58.017Z,65.10
2019-01-22T00:06:58.010Z,61.50
2019-01-22T00:07:57.996Z,63.00
2019-01-22T00:08:57.997Z,59.10
2019-01-22T00:09:57.979Z,62.80
2019-01-22T00:10:57.964Z,64.90
2019-01-22T00:11:57.953Z,62.40
2019-01-22T00:12:57.966Z,58.10
2019-01-22T00:13:57.961Z,58.80
2019-01-22T00:14:57.957Z,57.90
2019-01-22T00:15:57.906Z,60.40
2019-01-22T00:16:57.902Z,57.30
2019-01-22T00:17:57.884Z,56.80
2019-01-22T00:18:57.873Z,64.80
2019-01-22T00:19:57.903Z,60.40
2019-01-22T00:20:57.935Z,58.70
2019-01-22T00:21:57.841Z,55.90
2019-01-22T00:23:02.760Z,57.60
2019-01-22T00:23:58.823Z,58.80
2019-01-22T00:24:57.813Z,56.70
2019-01-22T00:25:57.849Z,60.90
2019-01-22T00:26:57.811Z,57.40
2019-01-22T00:27:57.779Z,64.20
2019-01-22T00:28:57.770Z,58.10
2019-01-22T00:29:57.756Z,55.20
2019-01-22T00:30:57.805Z,57.80
2019-01-22T00:31:57.772Z,57.00
2019-01-22T00:32:57.729Z,59.90
2019-01-22T00:33:57.719Z,58.10
2019-01-22T00:34:57.704Z,56.60
2019-01-22T00:35:57.700Z,59.40
2019-01-22T00:36:57.681Z,59.30
2019-01-22T00:37:57.683Z,61.90
2019-01-22T00:38:57.662Z,56.50
2019-01-22T00:39:57.653Z,57.60
2019-01-22T00:40:57.643Z,58.60
2019-01-22T00:41:57.628Z,57.30
2019-01-22T00:42:57.625Z,57.50
2019-01-22T00:43:57.604Z,61.00
2019-01-22T00:44:57.604Z,58.10
2019-01-22T00:45:57.628Z,61.40
2019-01-22T00:46:57.575Z,58.50
2019-01-22T00:47:57.609Z,56.40
2019-01-22T00:48:57.632Z,59.50
2019-01-22T00:49:57.540Z,60.00
2019-01-22T00:50:57.535Z,57.40
2019-01-22T00:51:57.527Z,58.20
2019-01-22T00:52:57.521Z,60.30
2019-01-22T00:53:57.497Z,56.30
2019-01-22T00:54:57.495Z,57.40
2019-01-22T00:55:57.476Z,53.00
2019-01-22T00:56:57.464Z,53.00
2019-01-22T00:57:57.463Z,58.30
2019-01-22T00:58:57.488Z,57.50
2019-01-22T00:59:57.439Z,58.80
2019-01-22T01:00:57.424Z,58.20
2019-01-22T01:01:58.306Z,57.80
2019-01-22T01:02:58.271Z,59.10
2019-01-22T01:03:57.394Z,59.00
2019-01-22T01:04:57.389Z,63.30
2019-01-22T01:05:57.374Z,59.20
2019-01-22T01:06:57.357Z,58.30
2019-01-22T01:07:57.355Z,60.20
2019-01-22T01:08:57.351Z,57.20
2019-01-22T01:09:57.332Z,58.00
2019-01-22T01:10:57.315Z,57.30
2019-01-22T01:11:57.307Z,60.40
2019-01-22T01:12:57.310Z,57.80
2019-01-22T01:13:57.354Z,59.70
2019-01-22T01:14:57.278Z,61.60
2019-01-22T01:15:57.263Z,60.70
2019-01-22T01:16:57.252Z,57.40
2019-01-22T01:17:57.240Z,57.80
2019-01-22T01:18:57.271Z,61.40
2019-01-22T01:19:57.224Z,58.10
2019-01-22T01:20:57.209Z,58.60
2019-01-22T01:21:57.211Z,58.20
2019-01-22T01:22:57.192Z,62.60
2019-01-22T01:23:57.236Z,57.80
2019-01-22T01:24:57.175Z,58.40
2019-01-22T01:25:57.160Z,57.30
2019-01-22T01:26:57.151Z,59.10
2019-01-22T01:27:57.141Z,62.40
2019-01-22T01:28:57.123Z,60.10
2019-01-22T01:29:57.145Z,58.90
2019-01-22T01:30:57.130Z,58.20
2019-01-22T01:31:57.095Z,60.30
2019-01-22T01:32:57.125Z,63.00
2019-01-22T01:33:57.074Z,60.20
2019-01-22T01:34:57.057Z,57.60
2019-01-22T01:35:57.067Z,61.70
2019-01-22T01:36:57.079Z,61.50
2019-01-22T01:37:57.040Z,63.10
2019-01-22T01:38:57.016Z,62.10
2019-01-22T01:39:57.009Z,58.90
2019-01-22T01:40:56.995Z,61.30
2019-01-22T01:41:57.067Z,62.80
2019-01-22T01:42:56.980Z,60.60
2019-01-22T01:43:56.981Z,59.60
2019-01-22T01:44:56.956Z,59.20
2019-01-22T01:45:56.941Z,61.10
2019-01-22T01:46:56.990Z,60.20
2019-01-22T01:47:56.927Z,62.00
2019-01-22T01:48:56.913Z,59.40
2019-01-22T01:49:56.903Z,59.50
2019-01-22T01:50:56.893Z,62.70
2019-01-22T01:51:56.892Z,60.10
2019-01-22T01:52:56.908Z,64.40
2019-01-22T01:53:56.864Z,59.80
2019-01-22T01:54:56.863Z,60.00
2019-01-22T01:55:56.853Z,59.70
2019-01-22T01:56:56.833Z,62.70
2019-01-22T01:57:56.834Z,63.60
2019-01-22T01:58:56.839Z,62.60
2019-01-22T01:59:56.796Z,60.00
2019-01-22T02:00:56.779Z,58.80
2019-01-22T02:01:56.769Z,61.10
2019-01-22T02:02:56.759Z,59.00
2019-01-22T02:03:56.777Z,63.90
2019-01-22T02:04:56.764Z,62.90
2019-01-22T02:05:56.726Z,64.70
2019-01-22T02:06:56.717Z,61.70
2019-01-22T02:07:56.710Z,61.90
2019-01-22T02:08:56.730Z,65.00
2019-01-22T02:09:56.695Z,63.30
2019-01-22T02:10:56.673Z,63.90
2019-01-22T02:11:56.684Z,63.60
2019-01-22T02:12:56.656Z,62.10
2019-01-22T02:13:56.668Z,59.50
2019-01-22T02:14:56.670Z,61.40
2019-01-22T02:15:56.620Z,62.70
2019-01-22T02:16:56.612Z,60.50
2019-01-22T02:17:56.600Z,62.20
2019-01-22T02:18:56.596Z,60.40
2019-01-22T02:19:56.638Z,64.00
2019-01-22T02:20:56.573Z,62.40
2019-01-22T02:21:56.558Z,61.20
2019-01-22T02:22:56.550Z,62.70
2019-01-22T02:23:56.535Z,58.40
2019-01-22T02:24:56.535Z,62.00
2019-01-22T02:25:56.542Z,60.30
2019-01-22T02:26:56.506Z,59.80
2019-01-22T02:27:56.522Z,60.80
2019-01-22T02:28:56.481Z,59.80
2019-01-22T02:29:56.474Z,58.20
2019-01-22T02:30:56.511Z,61.00
2019-01-22T02:31:56.450Z,61.10
2019-01-22T02:32:56.444Z,58.80
2019-01-22T02:33:56.426Z,60.10
2019-01-22T02:34:56.415Z,61.10
2019-01-22T02:35:56.405Z,59.50
2019-01-22T02:36:56.411Z,65.60
2019-01-22T02:37:56.396Z,57.90
2019-01-22T02:38:56.373Z,58.70
2019-01-22T02:39:56.369Z,59.10
2019-01-22T02:40:56.357Z,60.00
2019-01-22T02:41:56.389Z,60.70
2019-01-22T02:42:56.336Z,61.60
2019-01-22T02:43:56.330Z,62.40
2019-01-22T02:44:56.315Z,58.10
2019-01-22T02:45:56.303Z,57.80
2019-01-22T02:46:56.287Z,60.20
2019-01-22T02:47:56.319Z,61.60
2019-01-22T02:48:56.270Z,59.00
2019-01-22T02:49:56.280Z,60.10
2019-01-22T02:50:56.251Z,58.50
2019-01-22T02:51:56.240Z,57.90
2019-01-22T02:52:56.239Z,60.70
2019-01-22T02:53:56.256Z,59.20
2019-01-22T02:54:56.219Z,58.50
2019-01-22T02:55:56.205Z,58.70
2019-01-22T02:56:56.257Z,59.30
2019-01-22T02:57:56.176Z,57.70
2019-01-22T02:58:56.163Z,59.10
2019-01-22T02:59:56.166Z,60.60
2019-01-22T03:00:56.144Z,59.80
2019-01-22T03:01:56.128Z,59.50
2019-01-22T03:02:56.156Z,58.50
2019-01-22T03:03:56.104Z,59.80
2019-01-22T03:04:56.101Z,59.00
2019-01-22T03:05:56.166Z,60.60
2019-01-22T03:06:56.078Z,58.60
2019-01-22T03:07:56.105Z,56.00
2019-01-22T03:08:56.058Z,57.80
2019-01-22T03:09:56.046Z,56.00
2019-01-22T03:10:56.029Z,54.30
2019-01-22T03:11:56.019Z,56.50
2019-01-22T03:12:56.019Z,60.90
2019-01-22T03:13:56.012Z,59.80
2019-01-22T03:14:55.993Z,60.10
2019-01-22T03:15:56.825Z,56.60
2019-01-22T03:16:55.967Z,58.40
2019-01-22T03:17:55.965Z,55.30
2019-01-22T03:18:55.992Z,56.20
2019-01-22T03:19:55.942Z,57.80
2019-01-22T03:20:55.932Z,56.30
2019-01-22T03:21:55.918Z,57.80
2019-01-22T03:22:55.904Z,59.30
2019-01-22T03:23:55.900Z,59.10
2019-01-22T03:24:55.923Z,57.00
2019-01-22T03:25:55.869Z,57.00
2019-01-22T03:26:55.874Z,55.30
2019-01-22T03:27:55.848Z,55.40
2019-01-22T03:28:55.849Z,60.50
2019-01-22T03:29:55.857Z,58.70
2019-01-22T03:30:55.821Z,56.20
2019-01-22T03:31:55.815Z,55.50
2019-01-22T03:32:55.799Z,58.90
2019-01-22T03:33:55.801Z,54.80
2019-01-22T03:34:55.779Z,54.90
2019-01-22T03:35:55.850Z,59.90
2019-01-22T03:36:55.753Z,58.30
2019-01-22T03:37:55.769Z,56.50
2019-01-22T03:38:55.739Z,55.90
2019-01-22T03:39:55.740Z,56.30
2019-01-22T03:40:55.713Z,56.60
2019-01-22T03:41:55.758Z,60.60
2019-01-22T03:42:55.698Z,52.30
2019-01-22T03:43:55.696Z,55.90
2019-01-22T03:44:55.667Z,58.20
2019-01-22T03:45:55.660Z,56.00
2019-01-22T03:46:55.646Z,54.60
2019-01-22T03:47:55.659Z,56.30
2019-01-22T03:48:55.630Z,57.70
2019-01-22T03:49:55.619Z,55.80
2019-01-22T03:50:55.608Z,57.70
2019-01-22T03:51:55.600Z,57.20
2019-01-22T03:52:55.618Z,57.70
2019-01-22T03:53:55.577Z,57.70
2019-01-22T03:54:55.563Z,56.40
2019-01-22T03:55:55.551Z,54.80
2019-01-22T03:56:56.323Z,59.70
2019-01-22T03:57:56.328Z,55.10
2019-01-22T03:58:55.592Z,57.40
2019-01-22T03:59:55.505Z,58.10
2019-01-22T04:00:55.495Z,57.70
2019-01-22T04:01:55.485Z,55.20
2019-01-22T04:02:55.510Z,56.00
2019-01-22T04:03:55.469Z,56.60
2019-01-22T04:04:55.460Z,57.10
2019-01-22T04:05:55.449Z,59.40
2019-01-22T04:06:55.458Z,53.70
2019-01-22T04:07:55.418Z,57.60
2019-01-22T04:08:55.427Z,55.40
2019-01-22T04:09:55.396Z,53.70
2019-01-22T04:10:55.387Z,56.20
2019-01-22T04:11:55.401Z,55.70
2019-01-22T04:12:55.365Z,55.30
2019-01-22T04:13:55.387Z,55.20
2019-01-22T04:14:55.361Z,56.70
2019-01-22T04:15:55.333Z,55.60
2019-01-22T04:16:55.325Z,55.10
2019-01-22T04:17:55.346Z,54.50
2019-01-22T04:18:55.345Z,56.80
2019-01-22T04:19:55.297Z,61.40
2019-01-22T04:20:55.302Z,59.00
2019-01-22T04:21:55.397Z,53.20
2019-01-22T04:22:55.259Z,58.00
2019-01-22T04:24:01.601Z,55.40
2019-01-22T04:24:56.251Z,56.70
2019-01-22T04:25:55.233Z,55.10
2019-01-22T04:26:55.214Z,57.60
2019-01-22T04:27:55.252Z,53.60
2019-01-22T04:28:55.195Z,57.40
2019-01-22T04:29:55.183Z,55.90
2019-01-22T04:30:55.173Z,56.00
2019-01-22T04:31:55.188Z,55.50
2019-01-22T04:32:55.158Z,55.20
2019-01-22T04:33:55.166Z,54.90
2019-01-22T04:34:55.147Z,55.30
2019-01-22T04:35:55.123Z,54.70
2019-01-22T04:36:55.115Z,56.80
2019-01-22T04:37:55.102Z,54.10
2019-01-22T04:38:55.131Z,54.80
2019-01-22T04:39:55.113Z,58.10
2019-01-22T04:40:55.088Z,55.40
2019-01-22T04:41:55.055Z,53.50
2019-01-22T04:42:55.054Z,54.90
2019-01-22T04:43:55.041Z,54.20
2019-01-22T04:44:55.066Z,54.60
2019-01-22T04:45:55.012Z,53.40
2019-01-22T04:46:55.007Z,51.80
2019-01-22T04:47:54.990Z,54.10
2019-01-22T04:48:54.979Z,54.00
2019-01-22T04:49:54.970Z,54.20
2019-01-22T04:50:54.991Z,56.10
2019-01-22T04:51:54.991Z,54.20
2019-01-22T04:52:54.939Z,51.80
2019-01-22T04:53:54.934Z,53.10
2019-01-22T04:54:54.925Z,54.90
2019-01-22T04:55:54.961Z,52.20
2019-01-22T04:56:54.907Z,54.10
2019-01-22T04:57:54.922Z,56.90
2019-01-22T04:58:54.874Z,55.70
2019-01-22T04:59:54.862Z,53.50
2019-01-22T05:00:54.858Z,53.70
2019-01-22T05:01:54.847Z,55.00
2019-01-22T05:02:54.893Z,53.90
2019-01-22T05:03:54.824Z,51.90
2019-01-22T05:04:54.828Z,53.50
2019-01-22T05:05:54.827Z,52.90
2019-01-22T05:06:54.789Z,56.00
2019-01-22T05:07:54.782Z,50.70
2019-01-22T05:08:54.774Z,54.30
2019-01-22T05:09:54.763Z,51.50
2019-01-22T05:10:54.750Z,52.40
2019-01-22T05:11:54.741Z,54.00
2019-01-22T05:12:54.751Z,53.50
2019-01-22T05:13:54.745Z,52.90
2019-01-22T05:14:54.703Z,58.20
2019-01-22T05:15:54.697Z,55.40
2019-01-22T05:16:54.681Z,54.60
2019-01-22T05:17:54.669Z,56.00
2019-01-22T05:18:54.673Z,52.30
2019-01-22T05:19:54.652Z,56.50
2019-01-22T05:20:54.645Z,53.50
2019-01-22T05:21:54.631Z,52.70
2019-01-22T05:22:54.617Z,54.40
2019-01-22T05:23:54.615Z,51.40
2019-01-22T05:24:54.636Z,55.70
2019-01-22T05:25:54.587Z,54.30
2019-01-22T05:26:54.572Z,53.50
2019-01-22T05:27:54.566Z,55.80
2019-01-22T05:28:54.856Z,54.70
2019-01-22T05:29:54.562Z,54.00
2019-01-22T05:30:54.608Z,54.40
2019-01-22T05:31:54.526Z,53.40
2019-01-22T05:32:54.517Z,54.50
2019-01-22T05:33:54.533Z,54.10
2019-01-22T05:34:54.531Z,55.20
2019-01-22T05:35:54.476Z,55.50
2019-01-22T05:36:54.470Z,52.70
2019-01-22T05:37:54.455Z,54.90
2019-01-22T05:38:54.449Z,55.50
2019-01-22T05:39:54.462Z,55.50
2019-01-22T05:40:54.430Z,55.00
2019-01-22T05:41:54.416Z,53.10
2019-01-22T05:42:54.408Z,52.80
2019-01-22T05:43:54.413Z,53.70
2019-01-22T05:44:54.400Z,53.10
2019-01-22T05:45:54.489Z,54.20
2019-01-22T05:46:54.360Z,56.10
2019-01-22T05:47:54.348Z,54.80
2019-01-22T05:48:54.344Z,53.70
2019-01-22T05:49:54.332Z,55.60
2019-01-22T05:50:54.323Z,53.80
2019-01-22T05:51:54.340Z,51.30
2019-01-22T05:52:54.300Z,54.30
2019-01-22T05:53:54.282Z,57.70
2019-01-22T05:54:54.279Z,51.20
2019-01-22T05:55:54.296Z,51.70
2019-01-22T05:56:54.309Z,53.20
2019-01-22T05:57:54.244Z,52.20
2019-01-22T05:58:54.235Z,52.20
2019-01-22T05:59:54.219Z,52.60
2019-01-22T06:00:54.212Z,53.50
2019-01-22T06:01:54.203Z,54.80
2019-01-22T06:02:54.230Z,56.50
2019-01-22T06:03:54.227Z,53.20
2019-01-22T06:04:54.166Z,57.00
2019-01-22T06:05:54.185Z,55.50
2019-01-22T06:06:54.170Z,54.10
2019-01-22T06:07:54.133Z,55.70
2019-01-22T06:08:54.128Z,67.70
2019-01-22T06:09:54.112Z,69.90
2019-01-22T06:10:54.142Z,56.60
2019-01-22T06:11:54.092Z,53.90
2019-01-22T06:12:54.080Z,56.50
2019-01-22T06:13:54.073Z,54.70
2019-01-22T06:14:54.064Z,57.70
2019-01-22T06:15:54.053Z,55.60
2019-01-22T06:16:54.080Z,56.20
2019-01-22T06:17:54.030Z,55.30
2019-01-22T06:18:54.022Z,52.80
2019-01-22T06:19:54.010Z,56.60
2019-01-22T06:20:54.004Z,56.50
2019-01-22T06:21:54.028Z,54.60
2019-01-22T06:22:53.979Z,52.80
2019-01-22T06:23:53.961Z,52.40
2019-01-22T06:24:53.951Z,53.10
2019-01-22T06:25:53.939Z,55.90
2019-01-22T06:26:53.971Z,57.20
2019-01-22T06:27:53.920Z,54.00
2019-01-22T06:28:53.907Z,53.60
2019-01-22T06:29:53.897Z,52.50
2019-01-22T06:30:53.891Z,53.70
2019-01-22T06:31:53.875Z,52.10
2019-01-22T06:32:53.901Z,56.20
2019-01-22T06:33:53.878Z,58.40
2019-01-22T06:34:53.851Z,54.50
2019-01-22T06:35:53.836Z,55.00
2019-01-22T06:36:53.827Z,57.30
2019-01-22T06:37:53.839Z,55.50
2019-01-22T06:38:53.804Z,55.70
2019-01-22T06:39:53.793Z,53.90
2019-01-22T06:40:53.784Z,52.90
2019-01-22T06:41:53.773Z,53.90
2019-01-22T06:42:53.824Z,53.90
2019-01-22T06:43:53.745Z,56.90
2019-01-22T06:44:53.734Z,52.10
2019-01-22T06:45:53.727Z,52.20
2019-01-22T06:46:53.714Z,54.80
2019-01-22T06:47:53.701Z,51.10
2019-01-22T06:48:53.701Z,53.10
2019-01-22T06:49:53.681Z,54.40
2019-01-22T06:50:53.683Z,55.00
2019-01-22T06:51:53.664Z,54.60
2019-01-22T06:52:53.669Z,52.00
2019-01-22T06:53:53.661Z,53.30
2019-01-22T06:54:53.627Z,53.70
2019-01-22T06:55:53.621Z,59.70
2019-01-22T06:56:53.609Z,52.20
2019-01-22T06:57:53.601Z,54.50
2019-01-22T06:58:53.879Z,51.10
2019-01-22T06:59:54.350Z,53.90
2019-01-22T07:00:53.590Z,50.40
2019-01-22T07:01:53.615Z,53.90
2019-01-22T07:02:53.653Z,49.80
2019-01-22T07:03:53.542Z,51.50
2019-01-22T07:04:53.541Z,57.10
2019-01-22T07:05:53.549Z,54.30
2019-01-22T07:06:53.500Z,51.90
2019-01-22T07:07:53.492Z,52.70
2019-01-22T07:08:53.477Z,59.30
2019-01-22T07:09:53.507Z,53.90
2019-01-22T07:10:53.456Z,55.50
2019-01-22T07:11:53.450Z,51.20
2019-01-22T07:12:53.438Z,53.50
2019-01-22T07:13:53.429Z,49.20
2019-01-22T07:14:53.420Z,54.00
2019-01-22T07:15:53.478Z,51.40
2019-01-22T07:16:53.429Z,52.90
2019-01-22T07:17:53.385Z,53.70
2019-01-22T07:18:53.402Z,54.00
2019-01-22T07:19:53.422Z,52.90
2019-01-22T07:20:53.354Z,50.00
2019-01-22T07:21:53.385Z,53.50
2019-01-22T07:22:53.334Z,52.00
2019-01-22T07:23:53.318Z,50.00
2019-01-22T07:24:53.312Z,52.30
2019-01-22T07:25:53.299Z,52.90
2019-01-22T07:26:53.289Z,57.60
2019-01-22T07:27:53.304Z,55.60
2019-01-22T07:28:53.263Z,53.70
2019-01-22T07:29:53.289Z,52.60
2019-01-22T07:30:53.245Z,52.30
2019-01-22T07:31:53.231Z,54.80
2019-01-22T07:32:53.262Z,56.20
2019-01-22T07:33:53.210Z,55.00
2019-01-22T07:34:53.208Z,51.00
2019-01-22T07:35:53.204Z,51.90
2019-01-22T07:36:53.177Z,53.60
2019-01-22T07:37:53.214Z,59.40
2019-01-22T07:38:53.176Z,51.10
2019-01-22T07:39:53.152Z,56.00
2019-01-22T07:40:53.147Z,55.10
2019-01-22T07:41:53.141Z,54.70
2019-01-22T07:42:53.119Z,54.80
2019-01-22T07:43:53.112Z,51.30
2019-01-22T07:44:53.379Z,52.60
2019-01-22T07:45:53.080Z,51.80
2019-01-22T07:46:53.074Z,51.30
2019-01-22T07:47:53.088Z,50.10
2019-01-22T07:48:53.060Z,52.20
2019-01-22T07:49:53.095Z,53.50
2019-01-22T07:50:53.426Z,57.80
2019-01-22T07:51:53.018Z,54.50
2019-01-22T07:52:53.010Z,53.20
2019-01-22T07:53:53.035Z,58.90
2019-01-22T07:54:53.976Z,59.80
2019-01-22T07:55:52.974Z,53.70
2019-01-22T07:56:52.991Z,56.10
2019-01-22T07:57:52.979Z,55.10
2019-01-22T07:58:52.945Z,53.60
2019-01-22T07:59:52.929Z,56.00
2019-01-22T08:00:52.927Z,56.10
2019-01-22T08:01:52.919Z,81.50
2019-01-22T08:02:52.904Z,66.80
2019-01-22T08:03:52.894Z,51.60
2019-01-22T08:04:52.917Z,52.80
2019-01-22T08:05:52.876Z,48.90
2019-01-22T08:06:52.861Z,55.60
2019-01-22T08:07:52.868Z,53.20
2019-01-22T08:08:52.839Z,54.20
2019-01-22T08:09:52.836Z,51.30
2019-01-22T08:10:52.888Z,50.00
2019-01-22T08:11:52.898Z,52.50
2019-01-22T08:12:52.809Z,53.30
2019-01-22T08:13:52.780Z,52.70
2019-01-22T08:14:52.774Z,54.30
2019-01-22T08:15:52.823Z,59.20
2019-01-22T08:16:52.750Z,55.80
2019-01-22T08:17:52.738Z,51.00
2019-01-22T08:18:52.725Z,53.20
2019-01-22T08:19:52.745Z,51.20
2019-01-22T08:20:52.703Z,51.40
2019-01-22T08:21:52.799Z,54.60
2019-01-22T08:22:52.678Z,54.90
2019-01-22T08:23:52.673Z,53.60
2019-01-22T08:24:52.701Z,53.10
2019-01-22T08:25:52.657Z,55.60
2019-01-22T08:26:52.688Z,52.50
2019-01-22T08:27:52.626Z,50.30
2019-01-22T08:28:52.614Z,50.70
2019-01-22T08:29:52.665Z,52.40
2019-01-22T08:30:53.360Z,50.50
2019-01-22T08:31:52.587Z,49.50
2019-01-22T08:32:52.586Z,53.90
2019-01-22T08:33:52.566Z,61.90
2019-01-22T08:34:52.548Z,53.00
2019-01-22T08:35:52.581Z,52.60
2019-01-22T08:36:52.532Z,54.10
2019-01-22T08:37:52.515Z,50.60
2019-01-22T08:38:52.505Z,58.70
2019-01-22T08:39:52.516Z,52.30
2019-01-22T08:40:52.534Z,53.80
2019-01-22T08:41:52.476Z,53.40
2019-01-22T08:42:52.460Z,50.10
2019-01-22T08:43:52.457Z,52.20
2019-01-22T08:44:52.448Z,53.30
2019-01-22T08:45:52.436Z,71.00
2019-01-22T08:46:52.462Z,55.10
2019-01-22T08:47:52.406Z,56.80
2019-01-22T08:48:52.400Z,49.70
2019-01-22T08:49:52.391Z,52.40
2019-01-22T08:50:52.383Z,54.00
2019-01-22T08:51:52.406Z,50.70
2019-01-22T08:52:52.352Z,53.10
2019-01-22T08:53:52.347Z,53.10
2019-01-22T08:54:52.396Z,51.90
2019-01-22T08:55:52.355Z,48.70
2019-01-22T08:56:52.349Z,52.30
2019-01-22T08:57:52.304Z,48.60
2019-01-22T08:58:52.309Z,50.70
2019-01-22T08:59:52.276Z,52.70
2019-01-22T09:00:52.264Z,66.30
2019-01-22T09:01:52.294Z,54.20
2019-01-22T09:02:52.251Z,60.80
2019-01-22T09:03:52.238Z,48.80
2019-01-22T09:04:52.232Z,49.90
2019-01-22T09:05:52.235Z,50.10
2019-01-22T09:06:52.245Z,50.30
2019-01-22T09:07:52.206Z,56.60
2019-01-22T09:08:52.178Z,52.10
2019-01-22T09:09:52.171Z,50.30
2019-01-22T09:10:52.163Z,73.20
2019-01-22T09:11:52.170Z,56.60
2019-01-22T09:12:52.141Z,72.10
2019-01-22T09:13:52.121Z,64.30
2019-01-22T09:14:52.138Z,51.30
2019-01-22T09:15:52.111Z,61.40
2019-01-22T09:16:52.087Z,49.70
2019-01-22T09:17:52.092Z,53.00
2019-01-22T09:18:52.073Z,54.50
2019-01-22T09:19:52.062Z,46.70
2019-01-22T09:20:52.050Z,44.70
2019-01-22T09:21:52.035Z,54.50
2019-01-22T09:22:52.063Z,45.60
2019-01-22T09:23:52.053Z,44.20
2019-01-22T09:24:52.005Z,46.50
2019-01-22T09:25:51.991Z,52.70
2019-01-22T09:26:51.986Z,44.60
2019-01-22T09:27:52.016Z,47.90
2019-01-22T09:28:51.958Z,48.30
2019-01-22T09:29:51.954Z,53.70
2019-01-22T09:30:51.942Z,48.60
2019-01-22T09:31:51.927Z,43.60
2019-01-22T09:32:51.963Z,52.40
2019-01-22T09:33:51.917Z,50.00
2019-01-22T09:34:51.912Z,51.40
2019-01-22T09:35:51.888Z,50.30
2019-01-22T09:36:51.887Z,47.40
2019-01-22T09:37:51.881Z,44.10
2019-01-22T09:38:51.909Z,47.10
2019-01-22T09:39:51.863Z,46.40
2019-01-22T09:40:51.828Z,42.60
2019-01-22T09:41:51.816Z,44.20
2019-01-22T09:42:51.808Z,43.00
2019-01-22T09:43:51.793Z,47.10
2019-01-22T09:44:51.823Z,45.10
2019-01-22T09:45:51.876Z,41.00
2019-01-22T09:46:51.768Z,41.50
2019-01-22T09:47:51.825Z,40.80
2019-01-22T09:48:51.795Z,41.10
2019-01-22T09:49:51.808Z,41.60
2019-01-22T09:50:51.728Z,41.20
2019-01-22T09:51:51.715Z,43.70
2019-01-22T09:52:51.698Z,39.60
2019-01-22T09:53:51.690Z,45.40
2019-01-22T09:54:51.682Z,49.20
2019-01-22T09:55:51.702Z,45.60
2019-01-22T09:56:51.657Z,42.50
2019-01-22T09:57:51.647Z,40.10
2019-01-22T09:58:51.631Z,43.40
2019-01-22T09:59:51.620Z,43.40
2019-01-22T10:00:51.653Z,40.10
2019-01-22T10:01:51.604Z,42.90
2019-01-22T10:02:51.636Z,42.90
2019-01-22T10:03:51.755Z,41.50
2019-01-22T10:04:51.574Z,40.60
2019-01-22T10:05:51.571Z,52.40
2019-01-22T10:06:51.571Z,47.20
2019-01-22T10:07:51.538Z,46.00
2019-01-22T10:08:51.526Z,43.40
2019-01-22T10:09:51.510Z,40.70
2019-01-22T10:10:51.509Z,40.50
2019-01-22T10:11:51.519Z,42.20
2019-01-22T10:12:51.487Z,41.60
2019-01-22T10:13:51.471Z,42.60
2019-01-22T10:14:51.454Z,41.00
2019-01-22T10:15:51.443Z,43.70
2019-01-22T10:16:51.475Z,38.60
2019-01-22T10:17:51.433Z,39.40
2019-01-22T10:18:51.438Z,38.10
2019-01-22T10:19:51.403Z,41.40
2019-01-22T10:20:51.389Z,39.60
2019-01-22T10:21:51.383Z,42.00
2019-01-22T10:22:51.378Z,40.40
2019-01-22T10:23:51.397Z,39.80
2019-01-22T10:24:51.406Z,40.90
2019-01-22T10:25:51.334Z,39.60
2019-01-22T10:26:51.324Z,39.40
2019-01-22T10:27:51.319Z,37.80
2019-01-22T10:28:51.305Z,35.70
2019-01-22T10:29:51.291Z,37.50
2019-01-22T10:30:51.322Z,39.20
2019-01-22T10:31:51.273Z,37.00
2019-01-22T10:32:51.297Z,35.20
2019-01-22T10:33:51.252Z,33.80
2019-01-22T10:34:51.237Z,33.90
2019-01-22T10:35:51.262Z,37.60
2019-01-22T10:36:51.255Z,34.90
2019-01-22T10:37:51.202Z,34.60
2019-01-22T10:38:51.250Z,36.00
2019-01-22T10:39:51.185Z,35.80
2019-01-22T10:40:51.175Z,36.30
2019-01-22T10:41:51.166Z,36.10
2019-01-22T10:42:51.150Z,39.50
2019-01-22T10:43:51.205Z,37.00
2019-01-22T10:44:51.126Z,36.40
2019-01-22T10:45:51.119Z,38.00
2019-01-22T10:46:51.110Z,35.20
2019-01-22T10:47:51.096Z,32.90
2019-01-22T10:48:51.081Z,32.60
2019-01-22T10:49:51.122Z,35.80
2019-01-22T10:50:51.065Z,33.90
2019-01-22T10:51:51.060Z,36.20
2019-01-22T10:52:51.037Z,33.10
2019-01-22T10:53:51.030Z,35.90
2019-01-22T10:54:51.017Z,35.80
2019-01-22T10:55:51.046Z,36.80
2019-01-22T10:56:51.036Z,38.30
2019-01-22T10:57:51.013Z,36.20
2019-01-22T10:58:50.976Z,35.90
2019-01-22T10:59:51.062Z,45.50
2019-01-22T11:00:50.951Z,39.10
2019-01-22T11:01:50.942Z,45.50
2019-01-22T11:02:50.975Z,39.50
2019-01-22T11:03:50.923Z,34.80
2019-01-22T11:04:50.907Z,36.80
2019-01-22T11:05:50.928Z,36.00
2019-01-22T11:06:50.888Z,36.60
2019-01-22T11:07:50.876Z,39.30
2019-01-22T11:08:50.882Z,36.90
2019-01-22T11:09:50.853Z,47.20
2019-01-22T11:10:52.099Z,46.30
2019-01-22T11:11:50.851Z,40.20
2019-01-22T11:12:50.825Z,34.50
2019-01-22T11:13:50.840Z,38.00
2019-01-22T11:14:50.804Z,37.70
2019-01-22T11:15:50.802Z,40.20
2019-01-22T11:16:50.779Z,46.80
2019-01-22T11:17:50.774Z,35.40
2019-01-22T11:18:50.757Z,67.30
2019-01-22T11:19:50.761Z,38.90
2019-01-22T11:20:50.736Z,34.00
2019-01-22T11:21:50.719Z,41.80
2019-01-22T11:22:50.714Z,46.00
2019-01-22T11:23:50.698Z,46.20
2019-01-22T11:24:52.784Z,33.50
2019-01-22T11:25:50.676Z,34.70
2019-01-22T11:26:50.664Z,33.40
2019-01-22T11:27:50.654Z,29.20
2019-01-22T11:28:50.642Z,30.80
2019-01-22T11:29:50.637Z,33.90
2019-01-22T11:30:50.674Z,30.60
2019-01-22T11:31:50.674Z,39.70
2019-01-22T11:32:50.613Z,39.40
2019-01-22T11:33:50.593Z,36.70
2019-01-22T11:34:50.617Z,35.00
2019-01-22T11:35:50.569Z,39.00
2019-01-22T11:36:50.565Z,31.10
2019-01-22T11:37:50.545Z,40.60
2019-01-22T11:38:50.557Z,29.80
2019-01-22T11:39:50.526Z,31.10
2019-01-22T11:40:50.508Z,30.90
2019-01-22T11:41:50.503Z,32.60
2019-01-22T11:42:50.492Z,33.60
2019-01-22T11:43:50.505Z,32.80
2019-01-22T11:44:50.464Z,30.30
2019-01-22T11:45:50.453Z,31.20
2019-01-22T11:46:50.444Z,33.40
2019-01-22T11:47:50.438Z,41.50
2019-01-22T11:48:50.446Z,30.80
2019-01-22T11:49:50.422Z,32.00
2019-01-22T11:50:50.403Z,31.10
2019-01-22T11:51:50.392Z,31.10
2019-01-22T11:52:50.382Z,36.80
2019-01-22T11:53:50.372Z,29.60
2019-01-22T11:54:50.415Z,30.00
2019-01-22T11:55:50.810Z,28.30
2019-01-22T11:56:50.334Z,28.30
2019-01-22T11:57:50.320Z,27.90
2019-01-22T11:58:50.314Z,36.00
2019-01-22T11:59:50.305Z,33.10
2019-01-22T12:00:50.329Z,33.70
2019-01-22T12:01:50.281Z,32.50
2019-01-22T12:02:50.266Z,37.90
2019-01-22T12:03:50.314Z,33.40
2019-01-22T12:04:50.288Z,33.40
2019-01-22T12:05:53.273Z,34.40
2019-01-22T12:06:50.225Z,33.20
2019-01-22T12:07:50.217Z,32.30
2019-01-22T12:08:50.201Z,31.10
2019-01-22T12:09:50.233Z,35.20
2019-01-22T12:10:50.181Z,38.40
2019-01-22T12:11:50.170Z,36.80
2019-01-22T12:12:50.161Z,35.60
2019-01-22T12:13:53.969Z,35.60
2019-01-22T12:14:50.147Z,35.90
2019-01-22T12:15:50.454Z,35.30
2019-01-22T12:16:50.114Z,40.70
2019-01-22T12:17:50.107Z,40.30
2019-01-22T12:18:50.089Z,40.00
2019-01-22T12:19:50.077Z,35.20
2019-01-22T12:20:50.075Z,38.10
2019-01-22T12:21:50.096Z,36.40
2019-01-22T12:22:50.048Z,36.00
2019-01-22T12:23:50.050Z,38.80
2019-01-22T12:24:50.021Z,34.50
2019-01-22T12:25:50.015Z,34.10
2019-01-22T12:26:50.002Z,35.90
2019-01-22T12:27:49.993Z,33.00
2019-01-22T12:28:50.041Z,36.60
2019-01-22T12:29:49.969Z,38.90
2019-01-22T12:30:49.958Z,34.80
2019-01-22T12:31:49.949Z,37.60
2019-01-22T12:32:49.951Z,36.70
2019-01-22T12:33:49.929Z,34.90
2019-01-22T12:34:49.944Z,42.20
2019-01-22T12:35:49.924Z,40.20
2019-01-22T12:36:49.889Z,37.70
2019-01-22T12:37:49.885Z,61.80
2019-01-22T12:38:49.873Z,50.70
2019-01-22T12:39:49.893Z,36.40
2019-01-22T12:40:49.848Z,32.10
2019-01-22T12:41:49.841Z,34.60
2019-01-22T12:42:49.827Z,35.60
2019-01-22T12:43:49.865Z,34.00
2019-01-22T12:44:49.867Z,32.90
2019-01-22T12:45:49.794Z,35.70
2019-01-22T12:46:49.780Z,32.20
2019-01-22T12:47:49.773Z,33.50
2019-01-22T12:48:49.783Z,33.10
2019-01-22T12:49:49.752Z,34.20
2019-01-22T12:50:49.752Z,35.40
2019-01-22T12:51:49.724Z,33.10
2019-01-22T12:52:49.716Z,33.40